sensor_id;sensor_type;location;lat;lon;timestamp;P1;durP1;ratioP1;P2;durP2;ratioP2
36373;SDS011;22399;51.346;12.372;2023-07-22T00:00:49;7.68;;;3.20;;
36373;SDS011;22399;51.346;12.372;2023-07-22T00:03:17;11.88;;;3.17;;
36373;SDS011;22399;51.346;12.372;2023-07-22T00:05:46;9.93;;;3.20;;
36373;SDS011;22399;51.346;12.372;2023-07-22T00:08:15;6.47;;;3.17;;
36373;SDS011;22399;51.346;12.372;2023-07-22T00:10:43;12.65;;;3.00;;
36373;SDS011;22399;51.346;12.372;2023-07-22T00:13:12;7.55;;;2.92;;
36373;SDS011;22399;51.346;12.372;2023-07-22T00:15:41;5.65;;;2.80;;
36373;SDS011;22399;51.346;12.372;2023-07-22T00:18:09;5.40;;;2.67;;
36373;SDS011;22399;51.346;12.372;2023-07-22T00:20:38;12.40;;;3.47;;
36373;SDS011;22399;51.346;12.372;2023-07-22T00:23:06;19.75;;;3.70;;
36373;SDS011;22399;51.346;12.372;2023-07-22T00:25:36;6.78;;;3.05;;
36373;SDS011;22399;51.346;12.372;2023-07-22T00:28:05;9.27;;;2.92;;
36373;SDS011;22399;51.346;12.372;2023-07-22T00:30:34;6.68;;;3.22;;
36373;SDS011;22399;51.346;12.372;2023-07-22T00:33:03;5.88;;;2.92;;
36373;SDS011;22399;51.346;12.372;2023-07-22T00:35:32;12.18;;;3.53;;
36373;SDS011;22399;51.346;12.372;2023-07-22T00:38:01;7.88;;;3.15;;
36373;SDS011;22399;51.346;12.372;2023-07-22T00:40:31;8.52;;;3.35;;
36373;SDS011;22399;51.346;12.372;2023-07-22T00:42:59;9.48;;;3.95;;
36373;SDS011;22399;51.346;12.372;2023-07-22T00:45:27;5.20;;;2.70;;
36373;SDS011;22399;51.346;12.372;2023-07-22T00:47:57;5.38;;;2.70;;
36373;SDS011;22399;51.346;12.372;2023-07-22T00:50:25;5.97;;;2.35;;
36373;SDS011;22399;51.346;12.372;2023-07-22T00:52:54;9.98;;;3.00;;
36373;SDS011;22399;51.346;12.372;2023-07-22T00:55:23;6.30;;;3.60;;
36373;SDS011;22399;51.346;12.372;2023-07-22T00:57:52;5.25;;;3.15;;
36373;SDS011;22399;51.346;12.372;2023-07-22T01:00:22;4.07;;;2.50;;
36373;SDS011;22399;51.346;12.372;2023-07-22T01:02:51;11.00;;;4.18;;
36373;SDS011;22399;51.346;12.372;2023-07-22T01:05:21;9.15;;;3.90;;
36373;SDS011;22399;51.346;12.372;2023-07-22T01:07:50;5.93;;;2.95;;
36373;SDS011;22399;51.346;12.372;2023-07-22T01:10:19;9.55;;;3.67;;
36373;SDS011;22399;51.346;12.372;2023-07-22T01:12:47;5.10;;;3.22;;
36373;SDS011;22399;51.346;12.372;2023-07-22T01:15:16;4.35;;;2.78;;
36373;SDS011;22399;51.346;12.372;2023-07-22T01:17:44;8.25;;;3.22;;
36373;SDS011;22399;51.346;12.372;2023-07-22T01:20:13;5.90;;;3.38;;
36373;SDS011;22399;51.346;12.372;2023-07-22T01:25:17;7.88;;;3.35;;
36373;SDS011;22399;51.346;12.372;2023-07-22T01:27:47;10.77;;;3.08;;
36373;SDS011;22399;51.346;12.372;2023-07-22T01:30:15;6.90;;;3.40;;
36373;SDS011;22399;51.346;12.372;2023-07-22T01:32:44;7.63;;;3.78;;
36373;SDS011;22399;51.346;12.372;2023-07-22T01:35:14;8.93;;;4.18;;
36373;SDS011;22399;51.346;12.372;2023-07-22T01:37:42;7.22;;;3.55;;
36373;SDS011;22399;51.346;12.372;2023-07-22T01:40:12;9.73;;;4.20;;
36373;SDS011;22399;51.346;12.372;2023-07-22T01:42:42;16.77;;;4.50;;
36373;SDS011;22399;51.346;12.372;2023-07-22T01:45:10;14.65;;;5.43;;
36373;SDS011;22399;51.346;12.372;2023-07-22T01:47:39;10.30;;;4.47;;
36373;SDS011;22399;51.346;12.372;2023-07-22T01:50:08;11.75;;;4.53;;
36373;SDS011;22399;51.346;12.372;2023-07-22T01:52:36;9.70;;;4.25;;
36373;SDS011;22399;51.346;12.372;2023-07-22T01:55:05;10.18;;;4.60;;
36373;SDS011;22399;51.346;12.372;2023-07-22T01:57:39;15.45;;;4.90;;
36373;SDS011;22399;51.346;12.372;2023-07-22T02:00:08;11.07;;;4.30;;
36373;SDS011;22399;51.346;12.372;2023-07-22T02:02:38;10.15;;;4.07;;
36373;SDS011;22399;51.346;12.372;2023-07-22T02:05:07;11.45;;;4.13;;
36373;SDS011;22399;51.346;12.372;2023-07-22T02:07:36;11.85;;;4.15;;
36373;SDS011;22399;51.346;12.372;2023-07-22T02:10:05;11.00;;;4.75;;
36373;SDS011;22399;51.346;12.372;2023-07-22T02:12:35;8.65;;;4.05;;
36373;SDS011;22399;51.346;12.372;2023-07-22T02:15:05;8.00;;;3.97;;
36373;SDS011;22399;51.346;12.372;2023-07-22T02:17:34;6.75;;;3.45;;
36373;SDS011;22399;51.346;12.372;2023-07-22T02:20:03;9.90;;;5.07;;
36373;SDS011;22399;51.346;12.372;2023-07-22T02:22:35;8.50;;;4.47;;
36373;SDS011;22399;51.346;12.372;2023-07-22T02:25:04;8.45;;;3.90;;
36373;SDS011;22399;51.346;12.372;2023-07-22T02:27:34;11.25;;;4.88;;
36373;SDS011;22399;51.346;12.372;2023-07-22T02:30:02;8.00;;;4.38;;
36373;SDS011;22399;51.346;12.372;2023-07-22T02:32:36;10.27;;;4.10;;
36373;SDS011;22399;51.346;12.372;2023-07-22T02:35:06;19.63;;;5.28;;
36373;SDS011;22399;51.346;12.372;2023-07-22T02:37:36;8.98;;;4.20;;
36373;SDS011;22399;51.346;12.372;2023-07-22T02:40:06;9.35;;;4.32;;
36373;SDS011;22399;51.346;12.372;2023-07-22T02:42:37;11.75;;;5.10;;
36373;SDS011;22399;51.346;12.372;2023-07-22T02:45:08;19.27;;;5.47;;
36373;SDS011;22399;51.346;12.372;2023-07-22T02:47:37;7.35;;;4.13;;
36373;SDS011;22399;51.346;12.372;2023-07-22T02:50:05;12.00;;;4.65;;
36373;SDS011;22399;51.346;12.372;2023-07-22T02:52:35;7.88;;;4.75;;
36373;SDS011;22399;51.346;12.372;2023-07-22T02:55:04;15.27;;;4.75;;
36373;SDS011;22399;51.346;12.372;2023-07-22T02:57:36;9.23;;;3.97;;
36373;SDS011;22399;51.346;12.372;2023-07-22T03:00:05;11.52;;;4.25;;
36373;SDS011;22399;51.346;12.372;2023-07-22T03:02:38;6.97;;;3.30;;
36373;SDS011;22399;51.346;12.372;2023-07-22T03:05:07;11.38;;;4.28;;
36373;SDS011;22399;51.346;12.372;2023-07-22T03:07:37;7.35;;;3.72;;
36373;SDS011;22399;51.346;12.372;2023-07-22T03:10:06;9.05;;;4.53;;
36373;SDS011;22399;51.346;12.372;2023-07-22T03:12:36;10.95;;;4.68;;
36373;SDS011;22399;51.346;12.372;2023-07-22T03:15:05;7.85;;;4.30;;
36373;SDS011;22399;51.346;12.372;2023-07-22T03:17:36;9.75;;;4.50;;
36373;SDS011;22399;51.346;12.372;2023-07-22T03:20:06;10.45;;;4.50;;
36373;SDS011;22399;51.346;12.372;2023-07-22T03:22:40;8.88;;;4.13;;
36373;SDS011;22399;51.346;12.372;2023-07-22T03:25:09;7.57;;;3.60;;
36373;SDS011;22399;51.346;12.372;2023-07-22T03:27:37;8.93;;;4.57;;
36373;SDS011;22399;51.346;12.372;2023-07-22T03:30:08;7.63;;;3.72;;
36373;SDS011;22399;51.346;12.372;2023-07-22T03:32:38;9.52;;;4.05;;
36373;SDS011;22399;51.346;12.372;2023-07-22T03:35:07;8.15;;;4.38;;
36373;SDS011;22399;51.346;12.372;2023-07-22T03:37:38;8.25;;;4.18;;
36373;SDS011;22399;51.346;12.372;2023-07-22T03:40:07;8.20;;;4.20;;
36373;SDS011;22399;51.346;12.372;2023-07-22T03:42:46;9.95;;;4.38;;
36373;SDS011;22399;51.346;12.372;2023-07-22T03:45:17;7.70;;;3.95;;
36373;SDS011;22399;51.346;12.372;2023-07-22T03:47:46;12.77;;;3.67;;
36373;SDS011;22399;51.346;12.372;2023-07-22T03:50:25;10.63;;;4.13;;
36373;SDS011;22399;51.346;12.372;2023-07-22T03:52:54;19.77;;;4.40;;
36373;SDS011;22399;51.346;12.372;2023-07-22T03:55:22;9.52;;;4.07;;
36373;SDS011;22399;51.346;12.372;2023-07-22T03:57:51;13.10;;;3.97;;
36373;SDS011;22399;51.346;12.372;2023-07-22T04:00:21;9.27;;;3.95;;
36373;SDS011;22399;51.346;12.372;2023-07-22T04:02:49;7.13;;;3.88;;
36373;SDS011;22399;51.346;12.372;2023-07-22T04:05:18;9.68;;;3.80;;
36373;SDS011;22399;51.346;12.372;2023-07-22T04:07:46;10.55;;;3.88;;
36373;SDS011;22399;51.346;12.372;2023-07-22T04:10:15;6.38;;;3.50;;
36373;SDS011;22399;51.346;12.372;2023-07-22T04:12:44;11.18;;;4.63;;
36373;SDS011;22399;51.346;12.372;2023-07-22T04:15:12;17.90;;;4.53;;
36373;SDS011;22399;51.346;12.372;2023-07-22T04:17:43;9.07;;;4.65;;
36373;SDS011;22399;51.346;12.372;2023-07-22T04:20:11;11.35;;;5.10;;
36373;SDS011;22399;51.346;12.372;2023-07-22T04:22:40;14.65;;;4.57;;
36373;SDS011;22399;51.346;12.372;2023-07-22T04:25:10;10.82;;;4.65;;
36373;SDS011;22399;51.346;12.372;2023-07-22T04:27:38;11.32;;;4.93;;
36373;SDS011;22399;51.346;12.372;2023-07-22T04:30:07;7.40;;;4.10;;
36373;SDS011;22399;51.346;12.372;2023-07-22T04:32:39;12.18;;;4.60;;
36373;SDS011;22399;51.346;12.372;2023-07-22T04:35:09;14.80;;;4.55;;
36373;SDS011;22399;51.346;12.372;2023-07-22T04:37:38;7.80;;;3.92;;
36373;SDS011;22399;51.346;12.372;2023-07-22T04:40:06;16.48;;;4.43;;
36373;SDS011;22399;51.346;12.372;2023-07-22T04:42:40;9.02;;;4.20;;
36373;SDS011;22399;51.346;12.372;2023-07-22T04:45:09;7.57;;;4.22;;
36373;SDS011;22399;51.346;12.372;2023-07-22T04:47:38;8.50;;;4.25;;
36373;SDS011;22399;51.346;12.372;2023-07-22T04:50:09;9.50;;;4.00;;
36373;SDS011;22399;51.346;12.372;2023-07-22T04:52:38;10.07;;;4.63;;
36373;SDS011;22399;51.346;12.372;2023-07-22T04:55:10;12.30;;;4.72;;
36373;SDS011;22399;51.346;12.372;2023-07-22T04:57:39;15.32;;;4.50;;
36373;SDS011;22399;51.346;12.372;2023-07-22T05:00:08;8.32;;;3.63;;
36373;SDS011;22399;51.346;12.372;2023-07-22T05:02:40;7.68;;;3.75;;
36373;SDS011;22399;51.346;12.372;2023-07-22T05:05:10;18.20;;;4.25;;
36373;SDS011;22399;51.346;12.372;2023-07-22T05:07:39;15.15;;;4.53;;
36373;SDS011;22399;51.346;12.372;2023-07-22T05:10:08;8.07;;;4.07;;
36373;SDS011;22399;51.346;12.372;2023-07-22T05:12:39;12.15;;;4.47;;
36373;SDS011;22399;51.346;12.372;2023-07-22T05:15:08;13.52;;;4.45;;
36373;SDS011;22399;51.346;12.372;2023-07-22T05:17:38;10.18;;;4.00;;
36373;SDS011;22399;51.346;12.372;2023-07-22T05:20:06;11.25;;;3.75;;
36373;SDS011;22399;51.346;12.372;2023-07-22T05:22:39;11.73;;;4.53;;
36373;SDS011;22399;51.346;12.372;2023-07-22T05:25:08;9.77;;;4.70;;
36373;SDS011;22399;51.346;12.372;2023-07-22T05:27:37;10.13;;;5.15;;
36373;SDS011;22399;51.346;12.372;2023-07-22T05:30:06;9.63;;;4.07;;
36373;SDS011;22399;51.346;12.372;2023-07-22T05:32:51;11.20;;;3.85;;
36373;SDS011;22399;51.346;12.372;2023-07-22T05:35:19;9.77;;;4.07;;
36373;SDS011;22399;51.346;12.372;2023-07-22T05:37:49;11.60;;;3.97;;
36373;SDS011;22399;51.346;12.372;2023-07-22T05:40:17;8.35;;;3.45;;
36373;SDS011;22399;51.346;12.372;2023-07-22T05:42:46;10.68;;;4.38;;
36373;SDS011;22399;51.346;12.372;2023-07-22T05:45:14;11.23;;;3.50;;
36373;SDS011;22399;51.346;12.372;2023-07-22T05:47:43;12.38;;;4.35;;
36373;SDS011;22399;51.346;12.372;2023-07-22T05:50:11;5.80;;;2.83;;
36373;SDS011;22399;51.346;12.372;2023-07-22T05:52:39;8.57;;;3.40;;
36373;SDS011;22399;51.346;12.372;2023-07-22T05:55:09;8.82;;;3.53;;
36373;SDS011;22399;51.346;12.372;2023-07-22T05:57:38;12.60;;;4.60;;
36373;SDS011;22399;51.346;12.372;2023-07-22T06:00:07;10.82;;;3.75;;
36373;SDS011;22399;51.346;12.372;2023-07-22T06:02:39;15.23;;;4.35;;
36373;SDS011;22399;51.346;12.372;2023-07-22T06:05:08;10.43;;;3.38;;
36373;SDS011;22399;51.346;12.372;2023-07-22T06:07:36;8.73;;;3.03;;
36373;SDS011;22399;51.346;12.372;2023-07-22T06:10:05;6.93;;;3.40;;
36373;SDS011;22399;51.346;12.372;2023-07-22T06:12:36;7.70;;;3.00;;
36373;SDS011;22399;51.346;12.372;2023-07-22T06:15:06;8.68;;;3.58;;
36373;SDS011;22399;51.346;12.372;2023-07-22T06:17:34;12.10;;;3.10;;
36373;SDS011;22399;51.346;12.372;2023-07-22T06:20:03;8.85;;;3.10;;
36373;SDS011;22399;51.346;12.372;2023-07-22T06:22:32;8.38;;;2.83;;
36373;SDS011;22399;51.346;12.372;2023-07-22T06:25:01;7.53;;;3.17;;
36373;SDS011;22399;51.346;12.372;2023-07-22T06:27:29;9.00;;;3.50;;
36373;SDS011;22399;51.346;12.372;2023-07-22T06:29:59;6.88;;;2.67;;
36373;SDS011;22399;51.346;12.372;2023-07-22T06:32:28;8.93;;;3.35;;
36373;SDS011;22399;51.346;12.372;2023-07-22T06:34:57;6.15;;;2.63;;
36373;SDS011;22399;51.346;12.372;2023-07-22T06:37:26;6.07;;;2.75;;
36373;SDS011;22399;51.346;12.372;2023-07-22T06:39:54;8.00;;;3.55;;
36373;SDS011;22399;51.346;12.372;2023-07-22T06:42:23;7.20;;;2.70;;
36373;SDS011;22399;51.346;12.372;2023-07-22T06:44:52;9.52;;;3.38;;
36373;SDS011;22399;51.346;12.372;2023-07-22T06:47:23;8.15;;;3.10;;
36373;SDS011;22399;51.346;12.372;2023-07-22T06:49:51;15.95;;;3.47;;
36373;SDS011;22399;51.346;12.372;2023-07-22T06:52:20;6.80;;;2.75;;
36373;SDS011;22399;51.346;12.372;2023-07-22T06:54:48;8.52;;;2.58;;
36373;SDS011;22399;51.346;12.372;2023-07-22T06:57:16;8.60;;;3.00;;
36373;SDS011;22399;51.346;12.372;2023-07-22T06:59:45;9.50;;;2.35;;
36373;SDS011;22399;51.346;12.372;2023-07-22T07:02:14;7.50;;;2.65;;
36373;SDS011;22399;51.346;12.372;2023-07-22T07:04:44;7.00;;;2.97;;
36373;SDS011;22399;51.346;12.372;2023-07-22T07:07:12;10.02;;;3.05;;
36373;SDS011;22399;51.346;12.372;2023-07-22T07:09:41;6.43;;;2.22;;
36373;SDS011;22399;51.346;12.372;2023-07-22T07:12:14;5.90;;;2.33;;
36373;SDS011;22399;51.346;12.372;2023-07-22T07:14:43;11.30;;;3.83;;
36373;SDS011;22399;51.346;12.372;2023-07-22T07:17:11;5.65;;;2.22;;
36373;SDS011;22399;51.346;12.372;2023-07-22T07:19:40;7.88;;;2.05;;
36373;SDS011;22399;51.346;12.372;2023-07-22T07:22:11;5.95;;;2.10;;
36373;SDS011;22399;51.346;12.372;2023-07-22T07:24:39;5.35;;;2.22;;
36373;SDS011;22399;51.346;12.372;2023-07-22T07:27:08;3.15;;;1.38;;
36373;SDS011;22399;51.346;12.372;2023-07-22T07:29:36;8.80;;;2.15;;
36373;SDS011;22399;51.346;12.372;2023-07-22T07:32:19;12.98;;;3.10;;
36373;SDS011;22399;51.346;12.372;2023-07-22T07:34:48;5.35;;;1.98;;
36373;SDS011;22399;51.346;12.372;2023-07-22T07:37:17;3.45;;;1.80;;
36373;SDS011;22399;51.346;12.372;2023-07-22T07:39:46;8.73;;;2.22;;
36373;SDS011;22399;51.346;12.372;2023-07-22T07:42:14;6.95;;;1.88;;
36373;SDS011;22399;51.346;12.372;2023-07-22T07:44:42;6.72;;;1.80;;
36373;SDS011;22399;51.346;12.372;2023-07-22T07:47:11;6.18;;;1.88;;
36373;SDS011;22399;51.346;12.372;2023-07-22T07:49:40;9.05;;;2.33;;
36373;SDS011;22399;51.346;12.372;2023-07-22T07:52:08;5.60;;;2.22;;
36373;SDS011;22399;51.346;12.372;2023-07-22T07:54:38;5.78;;;1.67;;
36373;SDS011;22399;51.346;12.372;2023-07-22T07:57:06;3.70;;;1.27;;
36373;SDS011;22399;51.346;12.372;2023-07-22T07:59:34;3.63;;;1.45;;
36373;SDS011;22399;51.346;12.372;2023-07-22T08:02:05;5.03;;;2.05;;
36373;SDS011;22399;51.346;12.372;2023-07-22T08:04:36;5.13;;;1.70;;
36373;SDS011;22399;51.346;12.372;2023-07-22T08:07:05;4.10;;;1.63;;
36373;SDS011;22399;51.346;12.372;2023-07-22T08:09:34;3.83;;;1.58;;
36373;SDS011;22399;51.346;12.372;2023-07-22T08:12:04;4.22;;;1.50;;
36373;SDS011;22399;51.346;12.372;2023-07-22T08:14:33;6.53;;;1.60;;
36373;SDS011;22399;51.346;12.372;2023-07-22T08:17:02;2.85;;;1.20;;
36373;SDS011;22399;51.346;12.372;2023-07-22T08:19:31;5.03;;;1.25;;
36373;SDS011;22399;51.346;12.372;2023-07-22T08:21:59;4.90;;;1.77;;
36373;SDS011;22399;51.346;12.372;2023-07-22T08:24:28;5.05;;;1.70;;
36373;SDS011;22399;51.346;12.372;2023-07-22T08:26:56;4.40;;;2.20;;
36373;SDS011;22399;51.346;12.372;2023-07-22T08:29:26;3.65;;;1.42;;
36373;SDS011;22399;51.346;12.372;2023-07-22T08:31:54;2.60;;;1.58;;
36373;SDS011;22399;51.346;12.372;2023-07-22T08:34:22;3.67;;;1.75;;
36373;SDS011;22399;51.346;12.372;2023-07-22T08:36:51;2.42;;;1.20;;
36373;SDS011;22399;51.346;12.372;2023-07-22T08:39:20;3.58;;;1.83;;
36373;SDS011;22399;51.346;12.372;2023-07-22T08:41:49;4.05;;;2.05;;
36373;SDS011;22399;51.346;12.372;2023-07-22T08:44:18;5.07;;;2.00;;
36373;SDS011;22399;51.346;12.372;2023-07-22T08:46:51;4.47;;;1.60;;
36373;SDS011;22399;51.346;12.372;2023-07-22T08:49:23;4.15;;;1.80;;
36373;SDS011;22399;51.346;12.372;2023-07-22T08:51:53;2.38;;;1.17;;
36373;SDS011;22399;51.346;12.372;2023-07-22T08:54:23;6.13;;;1.80;;
36373;SDS011;22399;51.346;12.372;2023-07-22T08:56:52;3.10;;;1.35;;
36373;SDS011;22399;51.346;12.372;2023-07-22T08:59:22;5.28;;;1.77;;
36373;SDS011;22399;51.346;12.372;2023-07-22T09:01:53;5.50;;;2.05;;
36373;SDS011;22399;51.346;12.372;2023-07-22T09:04:22;2.88;;;1.40;;
36373;SDS011;22399;51.346;12.372;2023-07-22T09:06:50;5.22;;;1.23;;
36373;SDS011;22399;51.346;12.372;2023-07-22T09:09:21;2.60;;;1.13;;
36373;SDS011;22399;51.346;12.372;2023-07-22T09:11:50;2.58;;;1.60;;
36373;SDS011;22399;51.346;12.372;2023-07-22T09:14:21;3.28;;;1.48;;
36373;SDS011;22399;51.346;12.372;2023-07-22T09:17:03;3.28;;;1.50;;
36373;SDS011;22399;51.346;12.372;2023-07-22T09:19:32;3.95;;;1.15;;
36373;SDS011;22399;51.346;12.372;2023-07-22T09:22:00;9.30;;;1.60;;
36373;SDS011;22399;51.346;12.372;2023-07-22T09:24:30;3.67;;;1.65;;
36373;SDS011;22399;51.346;12.372;2023-07-22T09:26:59;5.72;;;1.85;;
36373;SDS011;22399;51.346;12.372;2023-07-22T09:29:34;4.03;;;1.88;;
36373;SDS011;22399;51.346;12.372;2023-07-22T09:32:04;1.95;;;1.20;;
36373;SDS011;22399;51.346;12.372;2023-07-22T09:34:34;3.55;;;1.80;;
36373;SDS011;22399;51.346;12.372;2023-07-22T09:37:03;3.33;;;1.63;;
36373;SDS011;22399;51.346;12.372;2023-07-22T09:39:32;2.97;;;1.58;;
36373;SDS011;22399;51.346;12.372;2023-07-22T09:42:02;5.00;;;1.70;;
36373;SDS011;22399;51.346;12.372;2023-07-22T09:44:33;3.45;;;1.55;;
36373;SDS011;22399;51.346;12.372;2023-07-22T09:47:07;4.43;;;1.52;;
36373;SDS011;22399;51.346;12.372;2023-07-22T09:49:39;1.83;;;1.23;;
36373;SDS011;22399;51.346;12.372;2023-07-22T09:52:10;2.88;;;1.55;;
36373;SDS011;22399;51.346;12.372;2023-07-22T09:54:47;5.80;;;1.60;;
36373;SDS011;22399;51.346;12.372;2023-07-22T09:57:17;2.83;;;1.50;;
36373;SDS011;22399;51.346;12.372;2023-07-22T09:59:46;4.40;;;1.85;;
36373;SDS011;22399;51.346;12.372;2023-07-22T10:02:18;3.10;;;1.48;;
36373;SDS011;22399;51.346;12.372;2023-07-22T10:04:48;4.32;;;1.33;;
36373;SDS011;22399;51.346;12.372;2023-07-22T10:07:19;6.80;;;1.75;;
36373;SDS011;22399;51.346;12.372;2023-07-22T10:09:49;2.53;;;1.50;;
36373;SDS011;22399;51.346;12.372;2023-07-22T10:12:21;3.45;;;1.10;;
36373;SDS011;22399;51.346;12.372;2023-07-22T10:14:50;2.70;;;1.40;;
36373;SDS011;22399;51.346;12.372;2023-07-22T10:17:22;2.17;;;1.00;;
36373;SDS011;22399;51.346;12.372;2023-07-22T10:19:51;5.40;;;1.80;;
36373;SDS011;22399;51.346;12.372;2023-07-22T10:22:21;3.33;;;1.60;;
36373;SDS011;22399;51.346;12.372;2023-07-22T10:24:50;4.07;;;1.50;;
36373;SDS011;22399;51.346;12.372;2023-07-22T10:27:21;1.85;;;1.25;;
36373;SDS011;22399;51.346;12.372;2023-07-22T10:29:51;2.58;;;1.33;;
36373;SDS011;22399;51.346;12.372;2023-07-22T10:32:22;2.35;;;1.10;;
36373;SDS011;22399;51.346;12.372;2023-07-22T10:34:52;3.95;;;1.67;;
36373;SDS011;22399;51.346;12.372;2023-07-22T10:37:20;2.25;;;1.20;;
36373;SDS011;22399;51.346;12.372;2023-07-22T10:39:51;2.90;;;1.40;;
36373;SDS011;22399;51.346;12.372;2023-07-22T10:42:24;2.38;;;1.35;;
36373;SDS011;22399;51.346;12.372;2023-07-22T10:44:53;2.75;;;1.40;;
36373;SDS011;22399;51.346;12.372;2023-07-22T10:50:09;2.50;;;1.33;;
36373;SDS011;22399;51.346;12.372;2023-07-22T10:52:39;2.45;;;1.20;;
36373;SDS011;22399;51.346;12.372;2023-07-22T10:55:16;3.30;;;1.42;;
36373;SDS011;22399;51.346;12.372;2023-07-22T10:57:48;1.77;;;1.15;;
36373;SDS011;22399;51.346;12.372;2023-07-22T11:00:18;2.05;;;1.10;;
36373;SDS011;22399;51.346;12.372;2023-07-22T11:05:47;3.22;;;1.00;;
36373;SDS011;22399;51.346;12.372;2023-07-22T11:08:17;2.25;;;1.00;;
36373;SDS011;22399;51.346;12.372;2023-07-22T11:11:05;2.15;;;0.95;;
36373;SDS011;22399;51.346;12.372;2023-07-22T11:13:39;3.25;;;1.60;;
36373;SDS011;22399;51.346;12.372;2023-07-22T11:16:10;3.30;;;1.35;;
36373;SDS011;22399;51.346;12.372;2023-07-22T11:18:40;5.93;;;1.02;;
36373;SDS011;22399;51.346;12.372;2023-07-22T11:21:10;2.03;;;1.05;;
36373;SDS011;22399;51.346;12.372;2023-07-22T11:23:39;2.80;;;1.45;;
36373;SDS011;22399;51.346;12.372;2023-07-22T11:26:08;2.40;;;1.52;;
36373;SDS011;22399;51.346;12.372;2023-07-22T11:28:37;2.67;;;1.40;;
36373;SDS011;22399;51.346;12.372;2023-07-22T11:31:05;3.55;;;1.40;;
36373;SDS011;22399;51.346;12.372;2023-07-22T11:33:41;3.42;;;1.25;;
36373;SDS011;22399;51.346;12.372;2023-07-22T11:36:13;7.18;;;1.10;;
36373;SDS011;22399;51.346;12.372;2023-07-22T11:38:41;3.92;;;1.33;;
36373;SDS011;22399;51.346;12.372;2023-07-22T11:41:10;3.45;;;1.08;;
36373;SDS011;22399;51.346;12.372;2023-07-22T11:43:39;2.90;;;1.20;;
36373;SDS011;22399;51.346;12.372;2023-07-22T11:46:07;3.20;;;1.35;;
36373;SDS011;22399;51.346;12.372;2023-07-22T11:48:36;3.13;;;1.20;;
36373;SDS011;22399;51.346;12.372;2023-07-22T11:51:08;1.70;;;0.93;;
36373;SDS011;22399;51.346;12.372;2023-07-22T11:53:36;1.98;;;1.10;;
36373;SDS011;22399;51.346;12.372;2023-07-22T11:56:05;3.10;;;1.30;;
36373;SDS011;22399;51.346;12.372;2023-07-22T11:58:33;3.83;;;1.20;;
36373;SDS011;22399;51.346;12.372;2023-07-22T12:01:03;6.20;;;1.27;;
36373;SDS011;22399;51.346;12.372;2023-07-22T12:03:33;4.22;;;1.80;;
36373;SDS011;22399;51.346;12.372;2023-07-22T12:06:02;4.13;;;1.50;;
36373;SDS011;22399;51.346;12.372;2023-07-22T12:08:32;4.60;;;1.25;;
36373;SDS011;22399;51.346;12.372;2023-07-22T12:11:02;3.75;;;1.10;;
36373;SDS011;22399;51.346;12.372;2023-07-22T12:13:35;3.28;;;1.42;;
36373;SDS011;22399;51.346;12.372;2023-07-22T12:16:05;2.22;;;1.25;;
36373;SDS011;22399;51.346;12.372;2023-07-22T12:18:40;3.72;;;1.30;;
36373;SDS011;22399;51.346;12.372;2023-07-22T12:21:10;2.85;;;1.30;;
36373;SDS011;22399;51.346;12.372;2023-07-22T12:23:40;4.75;;;1.42;;
36373;SDS011;22399;51.346;12.372;2023-07-22T12:26:09;3.20;;;1.50;;
36373;SDS011;22399;51.346;12.372;2023-07-22T12:28:38;3.58;;;1.45;;
36373;SDS011;22399;51.346;12.372;2023-07-22T12:31:07;5.20;;;1.60;;
36373;SDS011;22399;51.346;12.372;2023-07-22T12:33:36;4.35;;;1.42;;
36373;SDS011;22399;51.346;12.372;2023-07-22T12:36:05;6.40;;;1.48;;
36373;SDS011;22399;51.346;12.372;2023-07-22T12:38:33;2.45;;;1.10;;
36373;SDS011;22399;51.346;12.372;2023-07-22T12:41:03;2.78;;;1.27;;
36373;SDS011;22399;51.346;12.372;2023-07-22T12:43:32;4.57;;;1.23;;
36373;SDS011;22399;51.346;12.372;2023-07-22T12:46:00;3.15;;;1.60;;
36373;SDS011;22399;51.346;12.372;2023-07-22T12:48:28;3.22;;;1.40;;
36373;SDS011;22399;51.346;12.372;2023-07-22T12:50:57;3.13;;;1.73;;
36373;SDS011;22399;51.346;12.372;2023-07-22T12:53:26;4.40;;;1.63;;
36373;SDS011;22399;51.346;12.372;2023-07-22T12:55:58;3.95;;;1.58;;
36373;SDS011;22399;51.346;12.372;2023-07-22T12:58:30;5.18;;;1.60;;
36373;SDS011;22399;51.346;12.372;2023-07-22T13:00:58;20.20;;;1.75;;
36373;SDS011;22399;51.346;12.372;2023-07-22T13:03:27;4.30;;;1.75;;
36373;SDS011;22399;51.346;12.372;2023-07-22T13:05:56;3.88;;;1.73;;
36373;SDS011;22399;51.346;12.372;2023-07-22T13:08:24;4.07;;;1.50;;
36373;SDS011;22399;51.346;12.372;2023-07-22T13:10:53;3.33;;;1.67;;
36373;SDS011;22399;51.346;12.372;2023-07-22T13:13:21;4.18;;;1.90;;
36373;SDS011;22399;51.346;12.372;2023-07-22T13:15:51;3.45;;;1.50;;
36373;SDS011;22399;51.346;12.372;2023-07-22T13:18:20;3.90;;;1.52;;
36373;SDS011;22399;51.346;12.372;2023-07-22T13:20:49;7.45;;;1.38;;
36373;SDS011;22399;51.346;12.372;2023-07-22T13:23:17;3.22;;;1.30;;
36373;SDS011;22399;51.346;12.372;2023-07-22T13:25:45;8.13;;;2.28;;
36373;SDS011;22399;51.346;12.372;2023-07-22T13:28:14;2.80;;;1.52;;
36373;SDS011;22399;51.346;12.372;2023-07-22T13:30:42;3.33;;;1.98;;
36373;SDS011;22399;51.346;12.372;2023-07-22T13:33:12;2.90;;;1.40;;
36373;SDS011;22399;51.346;12.372;2023-07-22T13:35:40;2.97;;;1.60;;
36373;SDS011;22399;51.346;12.372;2023-07-22T13:38:08;5.65;;;1.40;;
36373;SDS011;22399;51.346;12.372;2023-07-22T13:40:36;4.63;;;1.55;;
36373;SDS011;22399;51.346;12.372;2023-07-22T13:43:06;5.05;;;1.50;;
36373;SDS011;22399;51.346;12.372;2023-07-22T13:45:36;2.83;;;1.52;;
36373;SDS011;22399;51.346;12.372;2023-07-22T13:48:04;3.63;;;1.50;;
36373;SDS011;22399;51.346;12.372;2023-07-22T13:50:34;2.95;;;1.50;;
36373;SDS011;22399;51.346;12.372;2023-07-22T13:53:05;5.60;;;1.70;;
36373;SDS011;22399;51.346;12.372;2023-07-22T13:55:33;8.40;;;2.08;;
36373;SDS011;22399;51.346;12.372;2023-07-22T13:58:02;4.13;;;1.50;;
36373;SDS011;22399;51.346;12.372;2023-07-22T14:00:31;4.40;;;2.20;;
36373;SDS011;22399;51.346;12.372;2023-07-22T14:02:59;5.80;;;1.55;;
36373;SDS011;22399;51.346;12.372;2023-07-22T14:05:28;2.58;;;1.50;;
36373;SDS011;22399;51.346;12.372;2023-07-22T14:07:59;2.05;;;1.30;;
36373;SDS011;22399;51.346;12.372;2023-07-22T14:10:27;4.40;;;1.77;;
36373;SDS011;22399;51.346;12.372;2023-07-22T14:12:55;4.50;;;1.33;;
36373;SDS011;22399;51.346;12.372;2023-07-22T14:15:23;8.32;;;2.00;;
36373;SDS011;22399;51.346;12.372;2023-07-22T14:17:52;3.28;;;1.70;;
36373;SDS011;22399;51.346;12.372;2023-07-22T14:20:21;4.45;;;1.77;;
36373;SDS011;22399;51.346;12.372;2023-07-22T14:22:49;2.50;;;1.50;;
36373;SDS011;22399;51.346;12.372;2023-07-22T14:25:19;4.15;;;1.45;;
36373;SDS011;22399;51.346;12.372;2023-07-22T14:27:47;4.90;;;1.90;;
36373;SDS011;22399;51.346;12.372;2023-07-22T14:30:16;3.03;;;1.60;;
36373;SDS011;22399;51.346;12.372;2023-07-22T14:32:45;6.53;;;1.50;;
36373;SDS011;22399;51.346;12.372;2023-07-22T14:35:14;3.10;;;1.23;;
36373;SDS011;22399;51.346;12.372;2023-07-22T14:37:42;4.43;;;1.42;;
36373;SDS011;22399;51.346;12.372;2023-07-22T14:40:11;3.83;;;1.40;;
36373;SDS011;22399;51.346;12.372;2023-07-22T14:42:41;3.08;;;1.65;;
36373;SDS011;22399;51.346;12.372;2023-07-22T14:45:10;3.78;;;2.03;;
36373;SDS011;22399;51.346;12.372;2023-07-22T14:47:38;4.22;;;1.48;;
36373;SDS011;22399;51.346;12.372;2023-07-22T14:50:07;3.28;;;1.45;;
36373;SDS011;22399;51.346;12.372;2023-07-22T14:52:36;4.75;;;1.85;;